Time,TemperatureF,DewpointF,PressureIn,WindDirection,WindDirectionDegrees,WindSpeedMPH,WindSpeedGustMPH,Humidity,HourlyPrecipIn,Conditions,Clouds,dailyrainin,SolarRadiationWatts/m^2,SoftwareType,DateUTC
2013-01-16 00:00:00,20.0,15.0,-100.00,NE,45,1.0,-999.0,82,-99.99,,,-99.99,0.000000,,2013-01-16 05:00:00,
2013-01-16 00:42:00,20.0,15.0,-100.00,NE,45,1.0,-999.0,82,-99.99,,,-99.99,0.000000,,2013-01-16 05:42:00,
2013-01-16 00:53:00,20.0,15.0,-100.00,NE,45,1.0,-999.0,82,-99.99,,,-99.99,0.000000,,2013-01-16 05:53:00,
2013-01-16 01:00:00,20.0,15.0,-100.00,NE,45,2.0,-999.0,80,-99.99,,,-99.99,0.000000,,2013-01-16 06:00:00,
2013-01-16 01:43:00,20.0,15.0,-100.00,NE,45,2.0,-999.0,80,-99.99,,,-99.99,0.000000,,2013-01-16 06:43:00,
2013-01-16 01:53:00,20.0,15.0,-100.00,NE,45,2.0,-999.0,80,-99.99,,,-99.99,0.000000,,2013-01-16 06:53:00,
2013-01-16 02:00:00,20.0,15.0,-100.00,NE,45,3.0,-999.0,81,-99.99,,,-99.99,0.000000,,2013-01-16 07:00:00,
2013-01-16 02:42:00,20.0,15.0,-100.00,NE,45,3.0,-999.0,81,-99.99,,,-99.99,0.000000,,2013-01-16 07:42:00,
2013-01-16 02:52:00,20.0,15.0,-100.00,NE,45,3.0,-999.0,81,-99.99,,,-99.99,0.000000,,2013-01-16 07:52:00,
2013-01-16 04:00:00,18.0,14.0,-100.00,NE,45,1.0,-999.0,83,-99.99,,,-99.99,0.000000,,2013-01-16 09:00:00,
2013-01-16 04:43:00,18.0,14.0,-100.00,NE,45,1.0,-999.0,83,-99.99,,,-99.99,0.000000,,2013-01-16 09:43:00,
2013-01-16 04:53:00,18.0,14.0,-100.00,NE,45,1.0,-999.0,83,-99.99,,,-99.99,0.000000,,2013-01-16 09:53:00,
2013-01-16 05:00:00,17.0,14.0,-100.00,NE,45,1.0,-999.0,85,-99.99,,,-99.99,0.000000,,2013-01-16 10:00:00,
2013-01-16 05:43:00,17.0,14.0,-100.00,NE,45,1.0,-999.0,85,-99.99,,,-99.99,0.000000,,2013-01-16 10:43:00,
2013-01-16 05:53:00,17.0,14.0,-100.00,NE,45,1.0,-999.0,85,-99.99,,,-99.99,0.000000,,2013-01-16 10:53:00,
2013-01-16 06:00:00,19.0,15.0,-100.00,NE,45,2.0,-999.0,84,-99.99,,,-99.99,0.000000,,2013-01-16 11:00:00,
2013-01-16 06:43:00,19.0,15.0,-100.00,NE,45,2.0,-999.0,84,-99.99,,,-99.99,0.000000,,2013-01-16 11:43:00,
2013-01-16 06:53:00,19.0,15.0,-100.00,NE,45,2.0,-999.0,84,-99.99,,,-99.99,0.000000,,2013-01-16 11:53:00,
2013-01-16 07:00:00,17.0,14.0,-100.00,NE,45,1.0,-999.0,85,-99.99,,,-99.99,0.000000,,2013-01-16 12:00:00,
2013-01-16 07:33:00,17.0,14.0,-100.00,NE,45,1.0,-999.0,85,-99.99,,,-99.99,0.000000,,2013-01-16 12:33:00,
2013-01-16 07:43:00,17.0,14.0,-100.00,NE,45,1.0,-999.0,85,-99.99,,,-99.99,0.000000,,2013-01-16 12:43:00,
2013-01-16 07:53:00,17.0,14.0,-100.00,NE,45,1.0,-999.0,85,-99.99,,,-99.99,0.000000,,2013-01-16 12:53:00,
2013-01-16 08:00:00,18.0,15.0,-100.00,NE,45,1.0,-999.0,85,-99.99,,,-99.99,0.000000,,2013-01-16 13:00:00,
2013-01-16 08:33:00,18.0,15.0,-100.00,NE,45,1.0,-999.0,85,-99.99,,,-99.99,0.000000,,2013-01-16 13:33:00,
2013-01-16 08:43:00,18.0,15.0,-100.00,NE,45,1.0,-999.0,85,-99.99,,,-99.99,0.000000,,2013-01-16 13:43:00,
2013-01-16 08:53:00,18.0,15.0,-100.00,NE,45,1.0,-999.0,85,-99.99,,,-99.99,0.000000,,2013-01-16 13:53:00,
2013-01-16 09:00:00,21.0,17.0,-100.00,NE,45,5.0,-999.0,83,-99.99,,,-99.99,29.000000,,2013-01-16 14:00:00,
2013-01-16 09:43:00,21.0,17.0,-100.00,NE,45,5.0,-999.0,83,-99.99,,,-99.99,29.000000,,2013-01-16 14:43:00,
2013-01-16 09:53:00,21.0,17.0,-100.00,NE,45,5.0,-999.0,83,-99.99,,,-99.99,29.000000,,2013-01-16 14:53:00,
2013-01-16 10:00:00,24.0,19.0,-100.00,NE,45,7.0,-999.0,78,-99.99,,,-99.99,147.320007,,2013-01-16 15:00:00,
2013-01-16 10:43:00,24.0,19.0,-100.00,NE,45,7.0,-999.0,78,-99.99,,,-99.99,147.320007,,2013-01-16 15:43:00,
2013-01-16 10:53:00,24.0,19.0,-100.00,NE,45,7.0,-999.0,78,-99.99,,,-99.99,147.320007,,2013-01-16 15:53:00,
2013-01-16 11:00:00,27.0,20.0,-100.00,NE,45,8.0,-999.0,74,-99.99,,,-99.99,254.039993,,2013-01-16 16:00:00,
2013-01-16 11:43:00,27.0,20.0,-100.00,NE,45,8.0,-999.0,74,-99.99,,,-99.99,254.039993,,2013-01-16 16:43:00,
2013-01-16 11:53:00,27.0,20.0,-100.00,NE,45,8.0,-999.0,74,-99.99,,,-99.99,254.039993,,2013-01-16 16:53:00,
2013-01-16 12:00:00,29.0,17.0,-100.00,NNE,22,9.0,-999.0,59,-99.99,,,-99.99,345.679993,,2013-01-16 17:00:00,
2013-01-16 12:44:00,29.0,17.0,-100.00,NNE,22,9.0,-999.0,59,-99.99,,,-99.99,345.679993,,2013-01-16 17:44:00,
2013-01-16 12:53:00,29.0,17.0,-100.00,NNE,22,9.0,-999.0,59,-99.99,,,-99.99,345.679993,,2013-01-16 17:53:00,
2013-01-16 13:00:00,32.0,12.0,-100.00,NNE,22,10.0,-999.0,42,-99.99,,,-99.99,400.200012,,2013-01-16 18:00:00,
2013-01-16 13:43:00,32.0,12.0,-100.00,NNE,22,10.0,-999.0,42,-99.99,,,-99.99,400.200012,,2013-01-16 18:43:00,
2013-01-16 13:53:00,32.0,12.0,-100.00,NNE,22,10.0,-999.0,42,-99.99,,,-99.99,400.200012,,2013-01-16 18:53:00,
2013-01-16 14:00:00,33.0,12.0,-100.00,NNE,22,12.0,-999.0,41,-99.99,,,-99.99,406.000000,,2013-01-16 19:00:00,
2013-01-16 14:43:00,33.0,12.0,-100.00,NNE,22,12.0,-999.0,41,-99.99,,,-99.99,406.000000,,2013-01-16 19:43:00,
2013-01-16 14:53:00,33.0,12.0,-100.00,NNE,22,12.0,-999.0,41,-99.99,,,-99.99,406.000000,,2013-01-16 19:53:00,
2013-01-16 15:00:00,33.0,15.0,-100.00,NE,45,14.0,-999.0,45,-99.99,,,-99.99,245.919998,,2013-01-16 20:00:00,
2013-01-16 15:43:00,33.0,15.0,-100.00,NE,45,14.0,-999.0,45,-99.99,,,-99.99,245.919998,,2013-01-16 20:43:00,
2013-01-16 15:53:00,33.0,15.0,-100.00,NE,45,14.0,-999.0,45,-99.99,,,-99.99,245.919998,,2013-01-16 20:53:00,
2013-01-16 16:00:00,34.0,16.0,-100.00,NNW,337,13.0,-999.0,47,-99.99,,,-99.99,110.199997,,2013-01-16 21:00:00,
2013-01-16 16:43:00,34.0,16.0,-100.00,NNW,337,13.0,-999.0,47,-99.99,,,-99.99,110.199997,,2013-01-16 21:43:00,
2013-01-16 16:53:00,34.0,16.0,-100.00,NNW,337,13.0,-999.0,47,-99.99,,,-99.99,110.199997,,2013-01-16 21:53:00,
2013-01-16 17:00:00,34.0,18.0,-100.00,NW,315,12.0,-999.0,51,-99.99,,,-99.99,24.360001,,2013-01-16 22:00:00,
2013-01-16 17:43:00,34.0,18.0,-100.00,NW,315,12.0,-999.0,51,-99.99,,,-99.99,24.360001,,2013-01-16 22:43:00,
2013-01-16 17:53:00,34.0,18.0,-100.00,NW,315,12.0,-999.0,51,-99.99,,,-99.99,24.360001,,2013-01-16 22:53:00,
2013-01-16 18:00:00,34.0,22.0,-100.00,WNW,292,12.0,-999.0,61,-99.99,,,-99.99,2.320000,,2013-01-16 23:00:00,
2013-01-16 18:43:00,34.0,22.0,-100.00,WNW,292,12.0,-999.0,61,-99.99,,,-99.99,2.320000,,2013-01-16 23:43:00,
2013-01-16 18:53:00,34.0,22.0,-100.00,WNW,292,12.0,-999.0,61,-99.99,,,-99.99,2.320000,,2013-01-16 23:53:00,
2013-01-16 19:00:00,34.0,23.0,-100.00,WNW,292,12.0,-999.0,64,-99.99,,,-99.99,0.000000,,2013-01-17 00:00:00,
2013-01-16 19:42:00,34.0,23.0,-100.00,WNW,292,12.0,-999.0,64,-99.99,,,-99.99,0.000000,,2013-01-17 00:42:00,
2013-01-16 19:52:00,34.0,23.0,-100.00,WNW,292,12.0,-999.0,64,-99.99,,,-99.99,0.000000,,2013-01-17 00:52:00,
2013-01-16 20:00:00,34.0,25.0,-100.00,West,270,13.0,-999.0,70,-99.99,,,-99.99,0.000000,,2013-01-17 01:00:00,
2013-01-16 20:33:00,34.0,25.0,-100.00,West,270,13.0,-999.0,70,-99.99,,,-99.99,0.000000,,2013-01-17 01:33:00,
2013-01-16 20:43:00,34.0,25.0,-100.00,West,270,13.0,-999.0,70,-99.99,,,-99.99,0.000000,,2013-01-17 01:43:00,
2013-01-16 20:52:00,34.0,25.0,-100.00,West,270,13.0,-999.0,70,-99.99,,,-99.99,0.000000,,2013-01-17 01:52:00,
2013-01-16 21:00:00,34.0,26.0,-100.00,West,270,15.0,-999.0,70,-99.99,,,-99.99,0.000000,,2013-01-17 02:00:00,
2013-01-16 22:00:00,35.0,26.0,-100.00,West,270,13.0,-999.0,69,-99.99,,,-99.99,0.000000,,2013-01-17 03:00:00,
2013-01-16 22:43:00,35.0,26.0,-100.00,West,270,13.0,-999.0,69,-99.99,,,-99.99,0.000000,,2013-01-17 03:43:00,
2013-01-16 22:53:00,35.0,26.0,-100.00,West,270,13.0,-999.0,69,-99.99,,,-99.99,0.000000,,2013-01-17 03:53:00,
2013-01-16 23:00:00,35.0,26.0,-100.00,West,270,11.0,-999.0,70,-99.99,,,-99.99,0.000000,,2013-01-17 04:00:00,
2013-01-16 23:43:00,35.0,26.0,-100.00,West,270,11.0,-999.0,70,-99.99,,,-99.99,0.000000,,2013-01-17 04:43:00,
2013-01-16 23:52:00,35.0,26.0,-100.00,West,270,11.0,-999.0,70,-99.99,,,-99.99,0.000000,,2013-01-17 04:52:00,